createdAt,value
2018-12-30T15:03:15.710Z,1.23
2018-12-30T15:05:45.705Z,1.40
2018-12-30T15:08:14.713Z,1.27
2018-12-30T15:10:43.548Z,2.47
2018-12-30T15:13:12.900Z,1.97
2018-12-30T15:15:41.773Z,1.52
2018-12-30T15:18:10.542Z,1.62
2018-12-30T15:20:39.545Z,1.60
2018-12-30T15:23:08.334Z,1.70
2018-12-30T15:25:37.164Z,1.70
2018-12-30T15:28:07.760Z,1.87
2018-12-30T15:30:36.533Z,1.80
2018-12-30T15:33:05.404Z,2.67
2018-12-30T15:35:35.144Z,2.00
2018-12-30T15:38:04.204Z,1.47
2018-12-30T15:40:33.584Z,1.30
2018-12-30T15:43:02.295Z,1.98
2018-12-30T15:45:31.021Z,2.08
2018-12-30T15:47:59.736Z,1.83
2018-12-30T15:50:28.548Z,1.83
2018-12-30T15:52:57.544Z,2.20
2018-12-30T15:55:26.356Z,2.17
2018-12-30T15:57:55.172Z,2.20
2018-12-30T16:00:24.170Z,2.80
2018-12-30T16:02:52.892Z,1.90
2018-12-30T16:05:21.616Z,2.17
2018-12-30T16:07:50.336Z,2.90
2018-12-30T16:10:19.157Z,1.97
2018-12-30T16:12:47.871Z,2.97
2018-12-30T16:15:17.622Z,3.23
2018-12-30T16:17:46.444Z,3.33
2018-12-30T16:20:15.640Z,3.40
2018-12-30T16:22:44.484Z,3.13
2018-12-30T16:25:13.612Z,3.07
2018-12-30T16:27:42.462Z,2.90
2018-12-30T16:30:11.296Z,2.93
2018-12-30T16:32:40.293Z,3.13
2018-12-30T16:35:09.173Z,3.17
2018-12-30T16:37:38.076Z,3.40
2018-12-30T16:40:07.272Z,3.23
2018-12-30T16:42:36.152Z,3.60
2018-12-30T16:45:05.586Z,3.67
2018-12-30T16:47:41.616Z,3.27
2018-12-30T16:50:05.808Z,3.03
2018-12-30T16:52:34.659Z,5.60
2018-12-30T16:55:03.517Z,5.13
2018-12-30T16:57:32.339Z,4.57
2018-12-30T17:00:01.233Z,3.57
2018-12-30T17:02:30.253Z,3.10
2018-12-30T17:04:58.969Z,2.70
2018-12-30T17:07:27.688Z,3.40
2018-12-30T17:09:56.756Z,3.50
2018-12-30T17:12:25.504Z,4.00
2018-12-30T17:14:54.217Z,3.87
2018-12-30T17:17:23.105Z,3.53
2018-12-30T17:19:51.905Z,2.97
2018-12-30T17:22:20.702Z,2.87
2018-12-30T17:24:50.607Z,2.90
2018-12-30T17:27:19.878Z,2.27
2018-12-30T17:29:48.592Z,2.40
2018-12-30T17:32:17.460Z,3.13
2018-12-30T17:34:46.582Z,3.07
2018-12-30T17:37:15.449Z,3.03
2018-12-30T17:39:44.837Z,4.47
2018-12-30T17:42:13.736Z,3.67
2018-12-30T17:44:43.064Z,2.90
2018-12-30T17:47:12.104Z,2.60
2018-12-30T17:49:40.941Z,2.83
2018-12-30T17:52:10.221Z,2.10
2018-12-30T17:54:39.121Z,2.77
2018-12-30T17:57:07.925Z,2.67
2018-12-30T17:59:36.882Z,3.30
2018-12-30T18:02:05.883Z,3.93
2018-12-30T18:04:34.713Z,4.07
2018-12-30T18:07:03.504Z,4.43
2018-12-30T18:09:32.868Z,4.03
2018-12-30T18:12:01.857Z,4.00
2018-12-30T18:14:30.732Z,4.70
2018-12-30T18:16:59.592Z,4.23
2018-12-30T18:19:28.351Z,4.67
2018-12-30T18:21:58.252Z,4.63
2018-12-30T18:24:27.073Z,4.43
2018-12-30T18:26:55.844Z,4.53
2018-12-30T18:29:25.228Z,3.70
2018-12-30T18:31:54.289Z,3.83
2018-12-30T18:34:23.036Z,3.90
2018-12-30T18:36:51.830Z,3.63
2018-12-30T18:39:20.899Z,3.53
2018-12-30T18:41:49.703Z,3.57
2018-12-30T18:44:18.557Z,3.77
2018-12-30T18:46:47.321Z,4.70
2018-12-30T18:49:16.077Z,5.10
2018-12-30T18:51:46.176Z,5.07
2018-12-30T18:54:15.050Z,4.73
2018-12-30T18:56:43.888Z,4.50
2018-12-30T18:59:12.813Z,5.00
2018-12-30T19:01:41.741Z,4.97
2018-12-30T19:04:10.997Z,4.50
2018-12-30T19:06:39.968Z,4.50
2018-12-30T19:09:08.936Z,4.27
2018-12-30T19:11:38.041Z,3.43
2018-12-30T19:14:06.928Z,3.10
2018-12-30T19:16:38.117Z,3.27
2018-12-30T19:19:07.140Z,3.40
2018-12-30T19:21:36.283Z,3.50
2018-12-30T19:24:05.105Z,4.07
2018-12-30T19:26:34.316Z,4.17
2018-12-30T19:29:03.064Z,3.70
2018-12-30T19:31:31.893Z,4.40
2018-12-30T19:34:00.608Z,4.50
2018-12-30T19:36:29.660Z,5.20
2018-12-30T19:38:58.383Z,5.57
2018-12-30T19:41:27.207Z,4.87
2018-12-30T19:43:56.268Z,6.20
2018-12-30T19:46:25.060Z,5.93
2018-12-30T19:48:53.916Z,6.30
2018-12-30T19:51:24.320Z,6.50
2018-12-30T19:53:53.807Z,6.97
2018-12-30T19:56:22.641Z,8.17
2018-12-30T19:58:51.557Z,7.37
2018-12-30T20:01:20.275Z,8.17
2018-12-30T20:03:49.045Z,9.53
2018-12-30T20:06:18.211Z,10.40
2018-12-30T20:08:47.336Z,9.67
2018-12-30T20:11:16.084Z,10.60
2018-12-30T20:13:45.140Z,10.20
2018-12-30T20:16:13.976Z,9.83
2018-12-30T20:18:43.055Z,11.07
2018-12-30T20:21:11.993Z,10.67
2018-12-30T20:23:41.740Z,10.70
2018-12-30T20:26:10.772Z,10.60
2018-12-30T20:28:39.784Z,10.07
2018-12-30T20:31:08.762Z,10.57
2018-12-30T20:33:37.504Z,10.33
2018-12-30T20:36:06.333Z,9.33
2018-12-30T20:38:35.154Z,8.53
2018-12-30T20:41:04.016Z,9.03
2018-12-30T20:43:32.872Z,8.60
2018-12-30T20:46:04.604Z,8.83
2018-12-30T20:48:33.817Z,9.57
2018-12-30T20:51:02.568Z,9.10
2018-12-30T20:53:31.640Z,9.10
2018-12-30T20:56:00.772Z,10.73
2018-12-30T20:58:29.800Z,11.20
2018-12-30T21:00:58.562Z,11.43
2018-12-30T21:03:27.568Z,9.37
2018-12-30T21:05:56.339Z,10.73
2018-12-30T21:08:25.220Z,11.90
2018-12-30T21:10:54.169Z,10.57
2018-12-30T21:13:23.015Z,10.60
2018-12-30T21:15:51.732Z,10.97
2018-12-30T21:18:21.183Z,11.00
2018-12-30T21:20:49.948Z,10.93
2018-12-30T21:23:18.769Z,10.23
2018-12-30T21:25:47.640Z,11.03
2018-12-30T21:28:16.800Z,10.47
2018-12-30T21:30:46.984Z,11.43
2018-12-30T21:33:15.828Z,14.30
2018-12-30T21:35:45.284Z,10.70
2018-12-30T21:38:14.229Z,9.57
2018-12-30T21:40:43.095Z,9.90
2018-12-30T21:43:12.303Z,10.33
2018-12-30T21:45:44.301Z,10.17
2018-12-30T21:48:13.437Z,9.80
2018-12-30T21:50:42.199Z,11.47
2018-12-30T21:53:11.004Z,9.37
2018-12-30T21:55:40.133Z,10.57
2018-12-30T21:58:09.077Z,11.40
2018-12-30T22:00:39.397Z,10.60
2018-12-30T22:03:08.964Z,11.00
2018-12-30T22:05:37.701Z,10.60
2018-12-30T22:08:07.493Z,11.63
2018-12-30T22:10:36.872Z,11.33
2018-12-30T22:13:07.100Z,11.07
2018-12-30T22:15:37.232Z,10.93
2018-12-30T22:18:05.996Z,11.30
2018-12-30T22:20:35.612Z,9.93
2018-12-30T22:23:05.832Z,10.57
2018-12-30T22:25:35.145Z,13.47
2018-12-30T22:28:05.080Z,10.10
2018-12-30T22:30:33.904Z,10.87
2018-12-30T22:33:02.694Z,10.97
2018-12-30T22:35:31.536Z,11.33
2018-12-30T22:38:00.500Z,11.23
2018-12-30T22:40:29.331Z,11.27
2018-12-30T22:42:58.165Z,12.07
2018-12-30T22:45:27.080Z,11.30
2018-12-30T22:47:56.335Z,12.23
2018-12-30T22:50:25.128Z,13.53
2018-12-30T22:52:54.352Z,12.60
2018-12-30T22:55:23.564Z,11.30
2018-12-30T22:57:54.707Z,11.93
2018-12-30T23:00:42.846Z,11.80
2018-12-30T23:03:11.570Z,11.73
2018-12-30T23:05:40.304Z,12.43
2018-12-30T23:08:09.530Z,12.57
2018-12-30T23:10:39.427Z,13.30
2018-12-30T23:13:08.153Z,12.83
2018-12-30T23:15:37.993Z,13.17
2018-12-30T23:18:06.921Z,13.87
2018-12-30T23:20:35.788Z,10.97
2018-12-30T23:23:05.658Z,12.53
2018-12-30T23:25:34.680Z,12.23
2018-12-30T23:28:03.460Z,12.97
2018-12-30T23:30:32.270Z,11.77
2018-12-30T23:33:01.204Z,12.33
2018-12-30T23:35:30.065Z,11.17
2018-12-30T23:38:01.460Z,12.23
2018-12-30T23:40:31.329Z,11.73
2018-12-30T23:43:00.744Z,13.07
2018-12-30T23:45:30.982Z,12.87
2018-12-30T23:47:59.876Z,11.60
2018-12-30T23:50:29.537Z,10.80
2018-12-30T23:52:58.661Z,11.43
2018-12-30T23:55:28.970Z,12.23
2018-12-30T23:57:58.104Z,12.33
